Time;durP1;ratioP1;P1;durP2;ratioP2;P2;SDS_P1;SDS_P2;PMS_P1;PMS_P2;Temp;Humidity;BMP_temperature;BMP_pressure;BME280_temperature;BME280_humidity;BME280_pressure;Samples;Min_cycle;Max_cycle;Signal;HPM_P1;HPM_P2
2022/09/07 00:01:40;;;;;;;48.78;19.02;;;;;;;16.76;100.00;100403.22;5077824;28;20066;-88
2022/09/07 00:04:08;;;;;;;50.20;17.48;;;;;;;17.27;100.00;100419.94;5076205;28;20048;-87
2022/09/07 00:06:35;;;;;;;47.20;17.45;;;;;;;16.94;100.00;100399.34;5069502;28;20044;-87
2022/09/07 00:09:02;;;;;;;49.83;17.52;;;;;;;17.14;100.00;100435.00;5076490;28;20059;-88
2022/09/07 00:11:29;;;;;;;45.03;16.52;;;;;;;17.05;100.00;100420.59;5057894;28;20132;-86
2022/09/07 00:13:56;;;;;;;51.47;18.70;;;;;;;16.94;100.00;100431.06;5089634;28;20048;-86
2022/09/07 00:16:28;;;;;;;50.72;19.90;;;;;;;17.06;100.00;100440.81;5076018;28;20051;-87
2022/09/07 00:18:57;;;;;;;34.25;15.77;;;;;;;16.81;100.00;100380.81;5077065;28;20048;-87
2022/09/07 00:21:25;;;;;;;39.90;15.32;;;;;;;17.13;100.00;100440.38;5076850;28;20097;-88
2022/09/07 00:23:53;;;;;;;51.50;16.70;;;;;;;17.05;100.00;100419.75;5064862;28;20044;-87
2022/09/07 00:26:23;;;;;;;47.60;17.33;;;;;;;16.95;100.00;100398.41;5092524;28;20454;-86
2022/09/07 00:28:51;;;;;;;39.72;13.35;;;;;;;16.93;100.00;100404.72;5084557;28;20044;-88
2022/09/07 00:31:20;;;;;;;53.85;18.55;;;;;;;17.12;100.00;100425.47;5066419;28;20052;-87
2022/09/07 00:33:49;;;;;;;52.72;16.38;;;;;;;17.19;100.00;100410.84;5084967;28;20517;-86
2022/09/07 00:36:17;;;;;;;52.70;17.48;;;;;;;17.08;100.00;100406.31;5068867;28;20048;-87
2022/09/07 00:38:44;;;;;;;44.92;15.05;;;;;;;16.91;100.00;100372.25;5072609;28;20474;-87
2022/09/07 00:41:12;;;;;;;36.22;15.40;;;;;;;17.14;100.00;100405.91;5067444;28;20404;-87
2022/09/07 00:43:45;;;;;;;30.00;12.43;;;;;;;17.27;100.00;100404.06;5076810;28;20490;-87
2022/09/07 00:46:19;;;;;;;41.70;13.95;;;;;;;17.06;100.00;100384.41;5075863;28;20131;-87
2022/09/07 00:49:09;;;;;;;39.08;14.70;;;;;;;17.16;100.00;100398.69;5074155;28;20071;-87
2022/09/07 00:51:41;;;;;;;37.90;16.38;;;;;;;17.19;100.00;100417.00;5097972;28;20052;-88
2022/09/07 00:54:12;;;;;;;47.20;15.45;;;;;;;17.20;100.00;100405.44;5095409;28;20066;-88
2022/09/07 00:56:42;;;;;;;32.20;12.13;;;;;;;17.12;100.00;100399.00;5076255;28;20048;-88
2022/09/07 00:59:13;;;;;;;26.40;10.07;;;;;;;17.24;100.00;100414.84;5075512;28;20048;-87
2022/09/07 01:01:40;;;;;;;36.92;14.30;;;;;;;17.17;100.00;100413.59;5065830;28;20059;-87
2022/09/07 01:04:07;;;;;;;31.45;12.50;;;;;;;17.06;100.00;100389.72;5073676;28;20048;-87
2022/09/07 01:06:37;;;;;;;41.97;14.52;;;;;;;16.99;100.00;100376.06;5065491;28;20482;-87
2022/09/07 01:09:09;;;;;;;39.10;16.10;;;;;;;17.15;100.00;100396.16;5075730;28;20082;-86
2022/09/07 01:11:37;;;;;;;31.73;12.07;;;;;;;17.34;100.00;100385.94;5075868;28;20466;-86
2022/09/07 01:14:09;;;;;;;22.35;9.80;;;;;;;17.41;100.00;100376.63;5070606;28;20053;-86
2022/09/07 01:16:48;;;;;;;35.85;14.70;;;;;;;17.17;100.00;100363.34;5075731;28;20123;-86
2022/09/07 01:19:33;;;;;;;26.10;10.93;;;;;;;17.44;100.00;100372.88;5075511;28;20409;-87
2022/09/07 01:22:32;;;;;;;25.05;8.90;;;;;;;17.57;100.00;100376.34;5085889;28;20063;-87
2022/09/07 01:25:11;;;;;;;21.13;8.50;;;;;;;17.62;100.00;100354.84;5041966;28;20052;-87
2022/09/07 01:28:08;;;;;;;13.98;6.28;;;;;;;17.64;100.00;100329.94;5075531;28;20074;-87
2022/09/07 01:30:37;;;;;;;17.95;7.20;;;;;;;17.73;100.00;100344.31;5075387;28;20040;-87
2022/09/07 01:33:22;;;;;;;20.02;8.00;;;;;;;17.68;100.00;100345.59;5059693;28;20071;-87
2022/09/07 01:36:08;;;;;;;19.75;8.23;;;;;;;17.74;100.00;100355.72;5060442;28;20051;-87
2022/09/07 01:38:37;;;;;;;22.23;8.27;;;;;;;17.70;100.00;100356.94;5091352;28;20052;-88
2022/09/07 01:41:28;;;;;;;18.50;7.43;;;;;;;17.70;100.00;100351.63;5070947;28;20047;-88
2022/09/07 01:44:04;;;;;;;24.00;9.88;;;;;;;17.70;100.00;100346.34;5075044;28;20059;-88
2022/09/07 01:46:43;;;;;;;14.25;6.00;;;;;;;17.78;100.00;100347.47;5086912;28;20044;-87
2022/09/07 01:49:40;;;;;;;21.88;7.80;;;;;;;17.59;100.00;100318.00;5075358;28;20048;-88
2022/09/07 01:52:26;;;;;;;16.15;6.95;;;;;;;17.38;100.00;100281.56;5071162;28;20066;-88
2022/09/07 01:55:02;;;;;;;26.30;9.38;;;;;;;17.66;100.00;100332.47;5068005;28;20139;-88
2022/09/07 01:57:42;;;;;;;22.55;8.63;;;;;;;17.59;100.00;100324.13;5066392;28;20050;-89
2022/09/07 02:00:16;;;;;;;23.48;9.23;;;;;;;17.37;100.00;100306.34;5075027;28;20048;-89
2022/09/07 02:02:52;;;;;;;24.15;9.02;;;;;;;17.67;100.00;100339.47;5074578;28;20398;-89
2022/09/07 02:05:46;;;;;;;31.40;13.18;;;;;;;17.65;100.00;100331.66;5091657;28;20059;-88
2022/09/07 02:08:25;;;;;;;24.05;9.18;;;;;;;17.75;100.00;100339.75;5060204;28;20046;-88
2022/09/07 02:11:01;;;;;;;22.05;9.10;;;;;;;17.70;100.00;100338.41;5074812;28;20135;-88
2022/09/07 02:13:34;;;;;;;20.55;8.73;;;;;;;17.67;100.00;100343.91;5075083;28;20047;-88
2022/09/07 02:16:17;;;;;;;29.70;10.13;;;;;;;17.37;100.00;100303.72;5074400;28;20058;-89
2022/09/07 02:18:46;;;;;;;28.48;12.70;;;;;;;17.40;100.00;100303.47;5072570;28;20097;-89
2022/09/07 02:21:18;;;;;;;21.17;8.13;;;;;;;17.59;100.00;100347.13;5072552;28;20048;-89
2022/09/07 02:23:54;;;;;;;32.38;10.73;;;;;;;17.41;100.00;100318.41;5082079;28;20063;-89
2022/09/07 02:26:27;;;;;;;30.58;9.38;;;;;;;17.61;100.00;100350.50;5089901;28;20055;-88
2022/09/07 02:28:55;;;;;;;26.45;10.02;;;;;;;17.39;100.00;100311.53;5072626;28;20050;-88
2022/09/07 02:31:22;;;;;;;30.50;9.65;;;;;;;17.42;100.00;100321.88;5074541;28;20480;-89
2022/09/07 02:33:50;;;;;;;41.72;13.15;;;;;;;17.37;100.00;100293.13;5069307;28;20445;-89
2022/09/07 02:36:22;;;;;;;33.30;10.80;;;;;;;17.54;100.00;100325.44;5066357;28;20048;-89
2022/09/07 02:38:49;;;;;;;22.13;7.75;;;;;;;17.34;100.00;100303.94;5072941;28;20058;-88
2022/09/07 02:41:32;;;;;;;13.52;6.43;;;;;;;17.61;100.00;100330.16;5075030;28;20048;-88
2022/09/07 02:44:00;;;;;;;;;;;;;;;17.71;100.00;100321.56;5070112;28;20135;-88
2022/09/07 02:46:29;;;;;;;14.00;6.40;;;;;;;17.50;100.00;100308.94;5076359;28;20277;-88
2022/09/07 02:49:07;;;;;;;17.88;6.28;;;;;;;17.60;100.00;100325.84;5074062;28;20051;-87
2022/09/07 02:51:54;;;;;;;35.42;10.90;;;;;;;17.33;100.00;100302.22;5074079;28;20055;-88
2022/09/07 02:54:48;;;;;;;21.67;7.65;;;;;;;17.57;100.00;100322.56;5064440;28;20048;-87
2022/09/07 02:57:21;;;;;;;28.60;8.60;;;;;;;17.50;100.00;100313.41;5068658;28;20055;-88
2022/09/07 02:59:48;;;;;;;28.15;8.07;;;;;;;17.40;100.00;100318.50;5074817;28;20048;-87
2022/09/07 03:02:33;;;;;;;22.92;8.32;;;;;;;17.45;100.00;100319.84;5092624;28;20048;-89
2022/09/07 03:05:18;;;;;;;15.98;6.90;;;;;;;17.38;100.00;100307.19;5091959;28;20071;-87
2022/09/07 03:07:54;;;;;;;23.85;7.25;;;;;;;17.42;100.00;100304.22;5073058;28;20044;-88
2022/09/07 03:10:23;;;;;;;35.40;8.75;;;;;;;17.27;100.00;100302.69;5069840;28;20051;-88
2022/09/07 03:12:50;;;;;;;33.13;10.68;;;;;;;17.32;100.00;100311.13;5089237;28;20153;-88
2022/09/07 03:15:20;;;;;;;24.17;8.35;;;;;;;17.28;100.00;100301.72;5068617;28;20528;-87
2022/09/07 03:17:47;;;;;;;26.48;8.13;;;;;;;17.23;100.00;100299.41;5071829;28;20040;-87
2022/09/07 03:20:17;;;;;;;12.77;5.75;;;;;;;17.47;100.00;100303.88;5084877;28;20046;-87
2022/09/07 03:22:46;;;;;;;11.52;4.90;;;;;;;17.50;100.00;100302.81;5064856;28;20044;-88
2022/09/07 03:25:13;;;;;;;12.20;4.97;;;;;;;17.56;100.00;100292.59;5074266;28;20501;-88
2022/09/07 03:27:40;;;;;;;15.45;6.75;;;;;;;17.58;100.00;100285.41;5073186;28;20040;-88
2022/09/07 03:30:09;;;;;;;17.65;5.57;;;;;;;17.55;100.00;100272.41;5091156;28;20044;-87
2022/09/07 03:32:37;;;;;;;14.63;5.50;;;;;;;17.65;100.00;100276.06;5073960;28;20691;-87
2022/09/07 03:35:06;;;;;;;20.00;6.65;;;;;;;17.64;100.00;100276.16;5070077;28;20044;-87
2022/09/07 03:37:37;;;;;;;15.15;6.03;;;;;;;17.56;100.00;100254.69;5074692;28;20123;-86
2022/09/07 03:40:06;;;;;;;28.02;6.38;;;;;;;17.63;100.00;100270.00;5067650;28;20523;-87
2022/09/07 03:42:34;;;;;;;13.07;6.88;;;;;;;17.65;100.00;100264.59;5071218;28;20051;-87
2022/09/07 03:45:01;;;;;;;21.00;5.93;;;;;;;17.37;100.00;100237.56;5083617;28;20379;-86
2022/09/07 03:47:28;;;;;;;10.57;5.32;;;;;;;17.52;100.00;100245.31;5073335;28;20055;-88
2022/09/07 03:49:54;;;;;;;11.77;5.53;;;;;;;17.72;100.00;100246.44;5070299;28;20044;-88
2022/09/07 03:52:21;;;;;;;16.70;6.10;;;;;;;17.64;100.00;100233.81;5075681;28;20113;-87
2022/09/07 03:54:48;;;;;;;12.52;5.20;;;;;;;17.63;100.00;100221.50;5092148;28;20048;-88
2022/09/07 03:57:15;;;;;;;9.82;4.70;;;;;;;17.46;100.00;100175.16;5077505;28;20052;-88
2022/09/07 03:59:42;;;;;;;24.10;6.28;;;;;;;17.70;100.00;100212.16;5076148;28;20052;-87
2022/09/07 04:02:09;;;;;;;11.52;4.82;;;;;;;17.66;100.00;100205.41;5082620;28;20062;-87
2022/09/07 04:04:35;;;;;;;13.00;5.57;;;;;;;17.74;100.00;100226.88;5077429;28;20052;-86
2022/09/07 04:07:02;;;;;;;10.35;4.40;;;;;;;17.62;100.00;100220.69;5075280;28;20048;-85
2022/09/07 04:09:29;;;;;;;9.35;4.32;;;;;;;17.43;100.00;100178.88;5076321;28;20051;-81
2022/09/07 04:11:56;;;;;;;7.45;3.03;;;;;;;17.54;100.00;100212.47;5076708;28;20052;-81
2022/09/07 04:14:23;;;;;;;6.10;2.40;;;;;;;17.49;100.00;100213.78;5076423;28;20044;-83
2022/09/07 04:16:49;;;;;;;7.40;3.28;;;;;;;17.38;100.00;100222.50;5094172;28;20055;-86
2022/09/07 04:19:17;;;;;;;8.13;2.88;;;;;;;17.51;100.00;100249.78;5076334;28;20137;-85
2022/09/07 04:21:45;;;;;;;11.90;5.15;;;;;;;17.40;100.00;100233.81;5070254;28;20579;-85
2022/09/07 04:24:14;;;;;;;12.45;4.85;;;;;;;17.08;100.00;100182.31;5068402;28;20062;-85
2022/09/07 04:26:42;;;;;;;10.48;4.20;;;;;;;17.51;100.00;100227.72;5093640;28;20089;-85
2022/09/07 04:29:10;;;;;;;17.20;6.07;;;;;;;17.19;100.00;100230.94;5094224;28;20048;-84
2022/09/07 04:31:38;;;;;;;17.20;5.68;;;;;;;17.11;100.00;100222.75;5075546;28;20135;-85
2022/09/07 04:34:05;;;;;;;11.65;4.47;;;;;;;16.95;100.00;100221.22;5076249;28;20068;-84
2022/09/07 04:36:33;;;;;;;11.35;4.50;;;;;;;16.91;100.00;100203.91;5075454;28;20044;-85
2022/09/07 04:39:03;;;;;;;7.03;3.00;;;;;;;16.84;100.00;100200.84;5073975;28;20218;-85
2022/09/07 04:41:32;;;;;;;7.75;2.72;;;;;;;16.87;100.00;100198.00;5055691;28;20055;-84
2022/09/07 04:44:01;;;;;;;9.90;3.15;;;;;;;17.13;100.00;100223.47;5087677;28;20101;-84
2022/09/07 04:46:32;;;;;;;9.32;2.97;;;;;;;17.20;100.00;100228.19;5069988;28;20049;-83
2022/09/07 04:49:03;;;;;;;15.38;4.38;;;;;;;17.08;100.00;100237.03;5072395;28;20049;-84
2022/09/07 04:51:32;;;;;;;10.63;3.60;;;;;;;16.95;100.00;100199.22;5062758;28;20477;-84
2022/09/07 04:54:01;;;;;;;7.65;2.60;;;;;;;17.04;100.00;100241.69;5073199;28;20047;-86
2022/09/07 04:56:29;;;;;;;5.90;2.40;;;;;;;17.02;100.00;100250.72;5078751;28;20058;-86
2022/09/07 04:58:55;;;;;;;9.23;2.85;;;;;;;16.94;100.00;100226.63;5075867;28;20051;-86
2022/09/07 05:01:24;;;;;;;11.88;3.45;;;;;;;16.57;100.00;100200.13;5072376;28;20048;-87
2022/09/07 05:03:51;;;;;;;10.93;4.60;;;;;;;16.80;100.00;100236.38;5072421;28;20456;-87
2022/09/07 05:06:20;;;;;;;8.68;3.20;;;;;;;16.94;100.00;100247.78;5073787;28;20047;-87
2022/09/07 05:08:49;;;;;;;7.97;2.97;;;;;;;17.21;100.00;100239.63;5072075;28;20040;-87
2022/09/07 05:11:17;;;;;;;8.40;3.03;;;;;;;17.16;100.00;100229.41;5076340;28;20048;-86
2022/09/07 05:13:44;;;;;;;10.18;3.33;;;;;;;17.16;100.00;100205.59;5075445;28;20052;-85
2022/09/07 05:16:14;;;;;;;8.55;2.72;;;;;;;17.32;100.00;100226.47;5066720;28;20048;-86
2022/09/07 05:18:42;;;;;;;9.82;3.10;;;;;;;17.03;100.00;100173.91;5067073;28;20127;-86
2022/09/07 05:21:14;;;;;;;8.25;2.60;;;;;;;17.32;100.00;100213.22;5087951;28;20158;-86
2022/09/07 05:23:42;;;;;;;7.57;2.63;;;;;;;17.37;100.00;100211.09;5077155;28;20052;-86
2022/09/07 05:26:09;;;;;;;7.55;2.88;;;;;;;17.19;100.00;100208.00;5085167;28;20291;-86
2022/09/07 05:28:37;;;;;;;8.88;2.72;;;;;;;17.16;100.00;100192.34;5081792;28;20046;-87
2022/09/07 05:31:10;;;;;;;7.45;2.65;;;;;;;17.31;100.00;100208.88;5088660;28;20383;-87
2022/09/07 05:33:47;;;;;;;6.05;2.40;;;;;;;17.25;100.00;100196.13;5084016;28;20425;-87
2022/09/07 05:36:34;;;;;;;6.32;2.22;;;;;;;17.44;100.00;100206.16;5084505;28;20560;-87
2022/09/07 05:39:01;;;;;;;9.23;2.75;;;;;;;17.14;100.00;100194.28;5072775;28;20052;-87
2022/09/07 05:41:28;;;;;;;6.13;2.50;;;;;;;17.12;100.00;100203.25;5076705;28;20616;-87
2022/09/07 05:43:55;;;;;;;10.60;3.00;;;;;;;17.11;100.00;100209.53;5074256;28;20503;-88
2022/09/07 05:46:42;;;;;;;9.70;2.72;;;;;;;16.98;100.00;100202.50;5068878;28;20048;-88
2022/09/07 05:49:09;;;;;;;7.70;2.70;;;;;;;16.93;100.00;100206.41;5061839;28;20102;-86
2022/09/07 05:51:36;;;;;;;11.55;2.70;;;;;;;16.85;100.00;100196.41;5060916;28;20048;-87
2022/09/07 05:54:03;;;;;;;7.60;2.45;;;;;;;16.90;100.00;100199.56;5056782;28;20417;-86
2022/09/07 05:56:34;;;;;;;9.63;2.78;;;;;;;17.13;100.00;100223.47;5086593;28;20047;-86
2022/09/07 05:59:01;;;;;;;12.10;3.63;;;;;;;16.97;100.00;100206.09;5066065;28;20055;-87
2022/09/07 06:01:28;;;;;;;8.20;2.55;;;;;;;16.93;100.00;100199.34;5070390;28;20083;-86
2022/09/07 06:03:55;;;;;;;7.60;2.72;;;;;;;16.95;100.00;100180.72;5069640;28;20127;-86
2022/09/07 06:06:22;;;;;;;5.55;2.25;;;;;;;16.79;100.00;100173.03;5070280;28;20088;-85
2022/09/07 06:08:51;;;;;;;7.60;2.78;;;;;;;17.05;100.00;100206.38;5064362;28;20529;-85
2022/09/07 06:11:21;;;;;;;7.70;2.72;;;;;;;17.02;100.00;100189.88;5067882;28;20521;-86
2022/09/07 06:13:47;;;;;;;6.57;2.50;;;;;;;17.16;100.00;100154.50;5068836;28;20651;-86
2022/09/07 06:16:16;;;;;;;7.68;2.70;;;;;;;17.53;100.00;100173.72;5088473;28;20058;-86
2022/09/07 06:18:44;;;;;;;7.90;2.60;;;;;;;17.57;100.00;100175.19;5075969;28;20044;-85
2022/09/07 06:21:20;;;;;;;7.53;2.50;;;;;;;17.38;100.00;100180.16;5068236;28;20109;-86
2022/09/07 06:23:48;;;;;;;6.80;2.22;;;;;;;17.07;100.00;100164.78;5064940;28;20127;-86
2022/09/07 06:26:19;;;;;;;8.10;2.47;;;;;;;17.10;100.00;100197.25;5070859;28;20744;-86
2022/09/07 06:28:47;;;;;;;7.72;2.75;;;;;;;17.04;100.00;100196.75;5062271;28;20422;-86
2022/09/07 06:31:19;;;;;;;8.35;2.85;;;;;;;17.13;100.00;100195.22;5081487;28;20048;-86
2022/09/07 06:33:47;;;;;;;7.82;2.75;;;;;;;17.49;100.00;100187.31;5087176;28;20044;-85
2022/09/07 06:36:22;;;;;;;7.45;2.67;;;;;;;17.17;100.00;100172.88;5073094;28;20044;-84
2022/09/07 06:38:54;;;;;;;7.88;2.35;;;;;;;17.12;100.00;100175.00;5068692;28;20486;-84
2022/09/07 06:41:28;;;;;;;7.93;2.58;;;;;;;17.10;100.00;100195.44;5073506;28;20048;-84
2022/09/07 06:44:15;;;;;;;9.85;3.00;;;;;;;17.11;100.00;100196.31;5074486;28;20051;-84
2022/09/07 06:46:42;;;;;;;9.27;3.03;;;;;;;16.92;100.00;100159.78;5075995;28;20048;-85
2022/09/07 06:49:29;;;;;;;7.88;2.85;;;;;;;16.97;100.00;100147.91;5088823;28;20040;-85
2022/09/07 06:51:55;;;;;;;9.68;3.20;;;;;;;16.95;100.00;100157.75;5080454;28;20140;-84
2022/09/07 06:54:22;;;;;;;10.40;2.50;;;;;;;17.07;100.00;100175.38;5070291;28;20135;-85
2022/09/07 06:57:09;;;;;;;8.80;3.10;;;;;;;16.96;100.00;100153.31;5065280;28;20048;-85
2022/09/07 06:59:37;;;;;;;7.32;2.72;;;;;;;17.18;100.00;100197.53;5081233;28;20132;-86
2022/09/07 07:02:10;;;;;;;7.68;2.70;;;;;;;17.04;100.00;100193.25;5081346;28;20051;-86
2022/09/07 07:04:37;;;;;;;6.97;3.45;;;;;;;16.77;100.00;100151.13;5063946;28;20050;-85
2022/09/07 07:07:11;;;;;;;9.88;3.15;;;;;;;16.89;100.00;100198.72;5066854;28;20474;-85
2022/09/07 07:09:38;;;;;;;7.18;2.88;;;;;;;16.70;100.00;100153.38;5074242;28;20122;-85
2022/09/07 07:12:05;;;;;;;8.43;2.55;;;;;;;16.76;100.00;100182.00;5064866;28;20051;-85
2022/09/07 07:14:32;;;;;;;7.55;2.28;;;;;;;16.45;100.00;100173.66;5073535;28;20045;-85
2022/09/07 07:17:01;;;;;;;6.63;1.83;;;;;;;16.26;100.00;100171.47;5084038;28;20051;-86
2022/09/07 07:19:27;;;;;;;6.28;2.03;;;;;;;16.34;100.00;100170.91;5073793;28;20050;-84
2022/09/07 07:21:54;;;;;;;7.80;2.15;;;;;;;16.69;100.00;100197.47;5074716;28;20497;-85
2022/09/07 07:24:41;;;;;;;4.55;1.60;;;;;;;16.77;100.00;100189.00;5077634;28;20052;-85
2022/09/07 07:27:08;;;;;;;5.38;1.60;;;;;;;16.59;100.00;100166.50;5076360;28;20543;-85
2022/09/07 07:29:34;;;;;;;6.47;2.03;;;;;;;16.58;100.00;100180.69;5066766;28;20398;-85
2022/09/07 07:32:02;;;;;;;5.22;1.65;;;;;;;16.95;100.00;100176.25;5096703;28;20047;-85
2022/09/07 07:34:29;;;;;;;5.07;1.63;;;;;;;16.99;100.00;100174.25;5103405;28;20529;-85
2022/09/07 07:36:56;;;;;;;5.88;1.88;;;;;;;16.83;100.00;100185.94;5104011;28;20055;-85
2022/09/07 07:39:23;;;;;;;6.32;2.05;;;;;;;16.81;100.00;100173.75;5082349;28;20036;-85
2022/09/07 07:42:11;;;;;;;7.53;1.70;;;;;;;17.18;100.00;100208.13;5071897;28;20048;-85
2022/09/07 07:44:38;;;;;;;5.03;1.50;;;;;;;16.68;100.00;100181.75;5081972;28;20067;-85
2022/09/07 07:47:04;;;;;;;6.75;1.90;;;;;;;16.59;100.00;100156.81;5082011;28;20083;-86
2022/09/07 07:49:31;;;;;;;7.15;1.88;;;;;;;16.85;100.00;100162.03;5086126;28;20440;-85
2022/09/07 07:51:58;;;;;;;10.57;2.25;;;;;;;16.79;100.00;100165.09;5098575;28;20050;-85
2022/09/07 07:54:45;;;;;;;7.57;1.90;;;;;;;16.73;100.00;100176.09;5081226;28;20047;-85
2022/09/07 07:57:12;;;;;;;7.70;1.80;;;;;;;16.87;100.00;100199.75;5062226;28;20059;-85
2022/09/07 07:59:39;;;;;;;7.45;1.92;;;;;;;17.06;100.00;100229.22;5073696;28;21278;-84
2022/09/07 08:02:08;;;;;;;9.35;1.95;;;;;;;17.01;100.00;100218.13;5096104;28;20043;-85
2022/09/07 08:04:35;;;;;;;6.50;2.03;;;;;;;16.92;100.00;100197.63;5081792;28;20052;-84
2022/09/07 08:07:02;;;;;;;7.78;2.45;;;;;;;16.87;100.00;100191.84;5080996;28;20138;-84
2022/09/07 08:09:39;;;;;;;7.10;2.17;;;;;;;16.75;100.00;100204.13;5089898;28;20044;-84
2022/09/07 08:12:07;;;;;;;6.85;2.10;;;;;;;16.77;100.00;100212.78;5087604;28;20056;-83
2022/09/07 08:14:39;;;;;;;8.18;2.55;;;;;;;16.95;100.00;100241.53;5059077;28;20052;-84
2022/09/07 08:17:16;;;;;;;8.00;1.95;;;;;;;16.92;100.00;100205.56;5089618;28;20055;-83
2022/09/07 08:19:44;;;;;;;8.85;2.78;;;;;;;17.10;100.00;100239.56;5078208;28;20040;-83
2022/09/07 08:22:11;;;;;;;8.30;2.40;;;;;;;17.04;100.00;100195.91;5090450;28;20049;-84
2022/09/07 08:24:38;;;;;;;7.28;2.00;;;;;;;17.12;100.00;100196.16;5077954;28;20690;-85
2022/09/07 08:27:05;;;;;;;5.75;1.70;;;;;;;16.84;100.00;100187.63;5096375;28;20048;-86
2022/09/07 08:29:31;;;;;;;7.22;1.70;;;;;;;16.61;100.00;100199.81;5081211;28;20515;-86
2022/09/07 08:32:05;;;;;;;6.97;1.70;;;;;;;17.33;100.00;100227.28;5084466;28;20044;-87
2022/09/07 08:34:34;;;;;;;10.07;2.33;;;;;;;17.63;100.00;100187.94;5085692;28;20474;-87
2022/09/07 08:37:02;;;;;;;8.27;1.90;;;;;;;18.36;100.00;100243.34;5102847;28;20058;-88
2022/09/07 08:39:29;;;;;;;7.60;1.50;;;;;;;18.97;100.00;100249.13;5111080;28;20051;-88
2022/09/07 08:42:21;;;;;;;4.47;1.25;;;;;;;18.99;100.00;100211.84;5084322;28;20553;-88
2022/09/07 08:44:58;;;;;;;6.93;1.60;;;;;;;18.40;100.00;100213.84;5085158;28;20101;-88
2022/09/07 08:47:46;;;;;;;4.95;1.33;;;;;;;18.40;100.00;100213.00;5087690;28;20044;-88
2022/09/07 08:50:17;;;;;;;6.80;1.85;;;;;;;18.16;100.00;100244.91;5084875;28;20055;-89
2022/09/07 08:52:44;;;;;;;5.00;1.35;;;;;;;18.16;100.00;100248.38;5086107;28;20051;-87
2022/09/07 08:55:26;;;;;;;7.03;1.60;;;;;;;18.09;100.00;100239.22;5087354;28;20077;-87
2022/09/07 08:58:07;;;;;;;6.45;1.50;;;;;;;18.60;100.00;100244.06;5079868;28;20048;-87
2022/09/07 09:00:52;;;;;;;8.20;2.03;;;;;;;18.28;100.00;100216.63;5090835;28;20052;-87
2022/09/07 09:03:40;;;;;;;9.93;2.42;;;;;;;18.52;100.00;100232.38;5094397;28;20052;-88
2022/09/07 09:06:53;;;;;;;13.45;2.45;;;;;;;19.59;100.00;100243.25;5093690;28;20070;-88
2022/09/07 09:09:36;;;;;;;5.97;1.48;;;;;;;19.73;100.00;100238.50;5090205;28;20044;-89
2022/09/07 09:12:22;;;;;;;9.13;1.85;;;;;;;19.82;100.00;100234.22;5080297;28;20047;-88
2022/09/07 09:14:52;;;;;;;5.63;1.60;;;;;;;19.69;100.00;100239.69;5104553;28;20036;-88
2022/09/07 09:17:43;;;;;;;8.93;1.98;;;;;;;19.70;100.00;100237.88;5086000;28;20060;-89
2022/09/07 09:20:31;;;;;;;13.30;2.30;;;;;;;19.67;100.00;100233.69;5111533;28;20050;-89
2022/09/07 09:23:18;;;;;;;7.70;2.10;;;;;;;19.93;100.00;100235.97;5095274;28;20070;-89
2022/09/07 09:26:14;;;;;;;16.48;3.40;;;;;;;19.22;100.00;100201.19;5098830;28;20031;-90
2022/09/07 09:28:56;;;;;;;14.85;2.95;;;;;;;18.54;100.00;100212.75;5105382;28;20055;-89
2022/09/07 09:31:37;;;;;;;13.90;3.13;;;;;;;18.64;100.00;100247.31;5075519;28;20059;-87
2022/09/07 09:34:16;;;;;;;13.63;3.72;;;;;;;18.68;100.00;100232.00;5093457;28;20046;-89
2022/09/07 09:36:56;;;;;;;17.10;4.07;;;;;;;19.23;100.00;100251.47;5082613;28;20056;-91
2022/09/07 09:39:38;;;;;;;17.83;4.30;;;;;;;19.34;100.00;100198.34;5110817;28;20054;-89
2022/09/07 09:42:23;;;;;;;12.50;3.80;;;;;;;19.58;100.00;100217.66;5111313;28;20047;-89
2022/09/07 09:45:13;;;;;;;12.30;3.78;;;;;;;19.43;100.00;100239.22;5088526;28;20084;-91
2022/09/07 09:47:54;;;;;;;16.15;4.20;;;;;;;19.98;100.00;100241.75;5107561;28;20043;-90
2022/09/07 09:50:37;;;;;;;14.40;3.47;;;;;;;20.26;100.00;100239.38;5094233;28;20029;-89
2022/09/07 09:53:23;;;;;;;;;;;;;;;20.13;100.00;100238.75;5084771;28;20048;-89
2022/09/07 09:55:54;;;;;;;19.65;4.93;;;;;;;20.06;100.00;100233.97;5110823;28;20006;-93
2022/09/07 09:58:39;;;;;;;15.57;4.10;;;;;;;20.61;100.00;100224.81;5093072;28;20052;-93
2022/09/07 10:01:23;;;;;;;15.57;4.03;;;;;;;20.69;100.00;100234.81;5080501;28;20040;-92
2022/09/07 10:04:33;;;;;;;17.48;5.28;;;;;;;20.42;100.00;100239.72;5099773;28;20044;-93
2022/09/07 10:07:27;;;;;;;24.60;6.65;;;;;;;19.93;100.00;100241.28;5099788;28;20079;-92
2022/09/07 10:10:15;;;;;;;14.27;4.30;;;;;;;20.06;100.00;100217.16;5079887;28;20021;-92
2022/09/07 10:12:57;;;;;;;14.48;4.78;;;;;;;20.10;100.00;100245.19;5076882;28;20063;-92
2022/09/07 10:15:38;;;;;;;20.10;6.40;;;;;;;19.60;100.00;100244.94;5084113;28;20036;-93
2022/09/07 10:18:32;;;;;;;20.80;6.53;;;;;;;19.08;100.00;100240.28;5084082;28;20486;-92
2022/09/07 10:21:21;;;;;;;21.02;5.60;;;;;;;19.32;100.00;100256.03;5076159;28;20048;-92
2022/09/07 10:24:05;;;;;;;22.42;5.82;;;;;;;18.99;100.00;100272.88;5084808;28;20089;-92
2022/09/07 10:26:47;;;;;;;18.02;4.95;;;;;;;19.13;100.00;100235.44;5099576;28;20036;-92
2022/09/07 10:29:34;;;;;;;18.27;6.18;;;;;;;18.99;100.00;100226.94;5109609;28;20036;-93
2022/09/07 10:32:18;;;;;;;16.73;5.20;;;;;;;18.95;100.00;100272.28;5096626;28;20051;-92
2022/09/07 10:34:58;;;;;;;18.83;5.38;;;;;;;18.83;100.00;100275.06;5100729;28;20036;-91
2022/09/07 10:37:58;;;;;;;20.63;6.97;;;;;;;18.91;100.00;100268.19;5092249;28;20039;-92
2022/09/07 10:40:50;;;;;;;16.33;6.40;;;;;;;18.93;100.00;100279.53;5078348;28;20040;-92
2022/09/07 10:43:47;;;;;;;20.38;7.35;;;;;;;18.29;100.00;100250.09;5092787;28;20028;-92
2022/09/07 10:47:05;;;;;;;19.13;8.50;;;;;;;17.93;100.00;100278.44;5078589;28;20086;-91
2022/09/07 10:49:54;;;;;;;22.23;8.43;;;;;;;18.15;100.00;100286.47;5100534;28;20040;-91
2022/09/07 10:52:39;;;;;;;17.70;6.68;;;;;;;18.59;100.00;100284.81;5098391;28;20048;-92
2022/09/07 10:55:52;;;;;;;17.58;7.28;;;;;;;18.59;100.00;100281.31;5087037;28;20518;-91
2022/09/07 10:58:33;;;;;;;14.70;7.45;;;;;;;18.54;100.00;100286.97;5107001;28;20037;-92
2022/09/07 11:01:51;;;;;;;23.48;9.82;;;;;;;18.58;100.00;100287.59;5081450;28;20055;-92
2022/09/07 11:04:38;;;;;;;18.15;8.05;;;;;;;18.68;100.00;100288.56;5111731;28;20043;-91
2022/09/07 11:07:28;;;;;;;22.95;11.57;;;;;;;18.68;100.00;100293.00;5101521;28;20058;-92
2022/09/07 11:10:17;;;;;;;21.52;9.68;;;;;;;18.77;100.00;100292.28;5098907;28;20065;-92
2022/09/07 11:13:03;;;;;;;21.67;11.57;;;;;;;18.89;100.00;100299.31;5097219;28;20044;-92
2022/09/07 11:15:58;;;;;;;25.75;13.40;;;;;;;18.73;100.00;100289.03;5078444;28;20044;-92
2022/09/07 11:18:51;;;;;;;26.35;13.15;;;;;;;18.46;100.00;100286.72;5065591;28;20108;-92
2022/09/07 11:21:43;;;;;;;27.77;13.95;;;;;;;18.67;100.00;100296.63;5114089;28;20028;-91
2022/09/07 11:24:36;;;;;;;35.20;13.85;;;;;;;18.82;100.00;100292.78;5078829;28;20060;-92
2022/09/07 11:27:28;;;;;;;27.60;14.45;;;;;;;18.76;100.00;100287.94;5095016;28;20058;-92
2022/09/07 11:30:30;;;;;;;18.30;8.52;;;;;;;18.92;100.00;100290.25;5083335;28;20070;-89
2022/09/07 11:33:20;;;;;;;25.45;11.65;;;;;;;18.81;100.00;100293.72;5087014;28;20020;-91
2022/09/07 11:36:07;;;;;;;27.42;11.52;;;;;;;19.04;100.00;100302.53;5095578;28;20073;-91
2022/09/07 11:39:07;;;;;;;21.60;11.05;;;;;;;18.71;100.00;100245.88;5086309;28;20443;-91
2022/09/07 11:41:52;;;;;;;19.20;8.98;;;;;;;19.02;100.00;100272.63;5057943;28;20048;-91
2022/09/07 11:44:24;;;;;;;19.92;9.20;;;;;;;19.04;100.00;100251.28;5072120;28;20435;-92
2022/09/07 11:47:02;;;;;;;23.08;8.30;;;;;;;19.44;100.00;100294.00;5074674;28;20048;-92
2022/09/07 11:49:29;;;;;;;22.63;8.70;;;;;;;19.47;100.00;100261.03;5074297;28;20040;-92